createdAt,value
2018-02-07T00:00:59.643Z,101408.00
2018-02-07T00:03:26.366Z,101402.59
2018-02-07T00:05:52.486Z,101409.98
2018-02-07T00:08:18.605Z,101407.83
2018-02-07T00:10:44.736Z,101405.97
2018-02-07T00:13:10.891Z,101402.03
2018-02-07T00:15:36.991Z,101401.22
2018-02-07T00:18:03.147Z,101411.52
2018-02-07T00:20:29.273Z,101407.69
2018-02-07T00:22:55.438Z,101412.01
2018-02-07T00:25:21.577Z,101406.87
2018-02-07T00:27:47.665Z,101416.72
2018-02-07T00:30:13.794Z,101415.05
2018-02-07T00:32:39.964Z,101412.08
2018-02-07T00:35:06.117Z,101415.05
2018-02-07T00:37:32.201Z,101420.80
2018-02-07T00:39:58.382Z,101423.31
2018-02-07T00:42:24.505Z,101416.89
2018-02-07T00:44:50.579Z,101410.16
2018-02-07T00:47:16.729Z,101411.77
2018-02-07T00:49:42.854Z,101417.00
2018-02-07T00:52:08.951Z,101411.77
2018-02-07T00:54:35.086Z,101410.09
2018-02-07T00:57:01.194Z,101410.30
2018-02-07T00:59:27.284Z,101412.39
2018-02-07T01:01:53.385Z,101409.53
2018-02-07T01:04:19.530Z,101414.80
2018-02-07T01:06:45.620Z,101418.95
2018-02-07T01:09:11.741Z,101420.88
2018-02-07T01:11:37.830Z,101424.37
2018-02-07T01:14:03.964Z,101416.37
2018-02-07T01:16:30.111Z,101420.67
2018-02-07T01:18:56.261Z,101406.22
2018-02-07T01:21:22.959Z,101414.88
2018-02-07T01:23:49.132Z,101413.65
2018-02-07T01:26:15.245Z,101419.77
2018-02-07T01:28:41.315Z,101416.72
2018-02-07T01:31:07.510Z,101416.09
2018-02-07T01:33:33.684Z,101410.69
2018-02-07T01:35:59.776Z,101419.34
2018-02-07T01:38:25.921Z,101418.92
2018-02-07T01:40:52.032Z,101417.17
2018-02-07T01:43:18.208Z,101415.98
2018-02-07T01:45:44.344Z,101422.83
2018-02-07T01:48:10.451Z,101423.28
2018-02-07T01:50:36.646Z,101427.93
2018-02-07T01:53:02.806Z,101427.93
2018-02-07T01:55:28.918Z,101423.08
2018-02-07T01:57:55.011Z,101422.69
2018-02-07T02:00:21.144Z,101418.36
2018-02-07T02:02:47.289Z,101412.61
2018-02-07T02:05:13.452Z,101418.09
2018-02-07T02:07:39.612Z,101413.86
2018-02-07T02:10:05.704Z,101412.57
2018-02-07T02:12:31.854Z,101412.53
2018-02-07T02:14:58.012Z,101411.11
2018-02-07T02:17:24.104Z,101415.92
2018-02-07T02:19:50.360Z,101412.19
2018-02-07T02:22:16.433Z,101418.61
2018-02-07T02:24:42.582Z,101408.14
2018-02-07T02:27:08.697Z,101409.74
2018-02-07T02:29:34.851Z,101409.67
2018-02-07T02:32:00.957Z,101409.60
2018-02-07T02:34:27.104Z,101405.23
2018-02-07T02:36:53.195Z,101401.72
2018-02-07T02:39:19.284Z,101401.19
2018-02-07T02:41:45.429Z,101403.32
2018-02-07T02:44:11.598Z,101412.33
2018-02-07T02:46:37.718Z,101421.78
2018-02-07T02:49:03.849Z,101419.97
2018-02-07T02:51:30.005Z,101425.76
2018-02-07T02:53:56.410Z,101429.11
2018-02-07T02:56:22.517Z,101431.45
2018-02-07T02:58:48.656Z,101433.05
2018-02-07T03:01:14.749Z,101438.80
2018-02-07T03:03:40.885Z,101437.47
2018-02-07T03:06:07.019Z,101439.45
2018-02-07T03:08:33.120Z,101442.00
2018-02-07T03:10:59.258Z,101441.92
2018-02-07T03:13:25.427Z,101445.73
2018-02-07T03:15:51.533Z,101452.56
2018-02-07T03:18:17.664Z,101447.63
2018-02-07T03:20:43.778Z,101447.29
2018-02-07T03:23:09.920Z,101446.72
2018-02-07T03:25:36.052Z,101446.92
2018-02-07T03:28:02.170Z,101444.95
2018-02-07T03:30:28.253Z,101451.43
2018-02-07T03:32:54.343Z,101451.78
2018-02-07T03:35:20.483Z,101448.81
2018-02-07T03:37:46.646Z,101451.28
2018-02-07T03:40:12.738Z,101455.43
2018-02-07T03:42:38.851Z,101448.67
2018-02-07T03:45:05.047Z,101455.08
2018-02-07T03:47:31.128Z,101448.83
2018-02-07T03:49:57.289Z,101450.81
2018-02-07T03:52:23.377Z,101450.58
2018-02-07T03:54:49.617Z,101455.77
2018-02-07T03:57:15.695Z,101454.67
2018-02-07T03:59:41.790Z,101461.02
2018-02-07T04:02:07.911Z,101448.56
2018-02-07T04:04:34.059Z,101448.33
2018-02-07T04:07:00.154Z,101454.43
2018-02-07T04:09:26.296Z,101453.17
2018-02-07T04:11:52.521Z,101454.92
2018-02-07T04:14:18.749Z,101461.11
2018-02-07T04:16:44.933Z,101465.44
2018-02-07T04:19:11.175Z,101464.59
2018-02-07T04:21:37.420Z,101460.03
2018-02-07T04:24:03.625Z,101464.14
2018-02-07T04:26:29.785Z,101459.33
2018-02-07T04:28:56.556Z,101456.44
2018-02-07T04:31:22.719Z,101457.30
2018-02-07T04:33:48.944Z,101461.87
2018-02-07T04:36:15.165Z,101458.14
2018-02-07T04:38:41.333Z,101471.43
2018-02-07T04:41:07.471Z,101465.81
2018-02-07T04:43:33.664Z,101468.09
2018-02-07T04:45:59.801Z,101469.95
2018-02-07T04:48:25.947Z,101457.63
2018-02-07T04:50:52.189Z,101464.28
2018-02-07T04:53:18.415Z,101466.60
2018-02-07T04:55:44.603Z,101466.80
2018-02-07T04:58:10.755Z,101471.31
2018-02-07T05:00:36.984Z,101473.02
2018-02-07T05:03:03.130Z,101469.46
2018-02-07T05:05:29.335Z,101475.08
2018-02-07T05:07:55.524Z,101477.02
2018-02-07T05:10:21.655Z,101483.42
2018-02-07T05:12:47.782Z,101474.70
2018-02-07T05:15:13.988Z,101475.00
2018-02-07T05:17:40.148Z,101474.13
2018-02-07T05:20:06.408Z,101474.81
2018-02-07T05:22:32.564Z,101469.09
2018-02-07T05:24:58.771Z,101460.93
2018-02-07T05:27:24.977Z,101459.11
2018-02-07T05:29:51.151Z,101457.94
2018-02-07T05:32:17.365Z,101461.34
2018-02-07T05:34:43.544Z,101462.52
2018-02-07T05:37:09.728Z,101459.80
2018-02-07T05:39:35.888Z,101461.05
2018-02-07T05:42:02.069Z,101458.13
2018-02-07T05:44:28.252Z,101463.44
2018-02-07T05:46:54.388Z,101472.27
2018-02-07T05:49:20.505Z,101472.77
2018-02-07T05:51:46.733Z,101471.44
2018-02-07T05:54:13.131Z,101473.64
2018-02-07T05:56:39.317Z,101473.83
2018-02-07T05:59:05.545Z,101473.67
2018-02-07T06:01:31.696Z,101471.78
2018-02-07T06:03:57.898Z,101477.66
2018-02-07T06:06:24.050Z,101478.98
2018-02-07T06:08:50.207Z,101484.52
2018-02-07T06:11:16.401Z,101482.77
2018-02-07T06:13:42.645Z,101487.52
2018-02-07T06:16:08.821Z,101475.42
2018-02-07T06:18:34.960Z,101478.22
2018-02-07T06:21:01.132Z,101470.87
2018-02-07T06:23:27.308Z,101476.94
2018-02-07T06:25:53.488Z,101487.55
2018-02-07T06:28:19.722Z,101490.97
2018-02-07T06:30:45.915Z,101496.66
2018-02-07T06:33:12.089Z,101503.23
2018-02-07T06:35:38.293Z,101503.20
2018-02-07T06:38:04.521Z,101507.17
2018-02-07T06:40:30.695Z,101518.08
2018-02-07T06:42:56.870Z,101521.47
2018-02-07T06:45:23.140Z,101525.77
2018-02-07T06:47:49.292Z,101527.58
2018-02-07T06:50:15.428Z,101538.72
2018-02-07T06:52:41.623Z,101537.90
2018-02-07T06:55:07.840Z,101540.52
2018-02-07T06:57:34.026Z,101540.70
2018-02-07T07:00:00.341Z,101544.35
2018-02-07T07:02:26.515Z,101540.74
2018-02-07T07:04:52.732Z,101549.59
2018-02-07T07:07:18.928Z,101545.14
2018-02-07T07:09:45.403Z,101548.72
2018-02-07T07:12:11.634Z,101553.20
2018-02-07T07:14:37.832Z,101553.48
2018-02-07T07:17:04.051Z,101553.83
2018-02-07T07:19:30.218Z,101552.82
2018-02-07T07:21:56.448Z,101552.20
2018-02-07T07:24:22.646Z,101553.78
2018-02-07T07:26:48.800Z,101558.01
2018-02-07T07:29:15.013Z,101556.94
2018-02-07T07:31:41.181Z,101562.75
2018-02-07T07:34:07.416Z,101572.34
2018-02-07T07:36:33.615Z,101575.63
2018-02-07T07:38:59.763Z,101575.30
2018-02-07T07:41:25.926Z,101576.88
2018-02-07T07:43:52.137Z,101585.98
2018-02-07T07:46:18.379Z,101578.12
2018-02-07T07:48:44.535Z,101587.85
2018-02-07T07:51:10.772Z,101590.93
2018-02-07T07:53:36.916Z,101594.30
2018-02-07T07:56:03.182Z,101588.81
2018-02-07T07:58:29.308Z,101590.77
2018-02-07T08:00:55.538Z,101590.52
2018-02-07T08:03:21.670Z,101597.33
2018-02-07T08:05:47.971Z,101595.17
2018-02-07T08:08:14.121Z,101601.43
2018-02-07T08:10:40.260Z,101603.17
2018-02-07T08:13:06.442Z,101610.97
2018-02-07T08:15:32.663Z,101614.17
2018-02-07T08:17:58.787Z,101616.87
2018-02-07T08:20:24.928Z,101619.08
2018-02-07T08:22:51.025Z,101618.15
2018-02-07T08:25:17.202Z,101623.09
2018-02-07T08:27:43.345Z,101628.23
2018-02-07T08:30:09.490Z,101622.88
2018-02-07T08:32:35.588Z,101618.16
2018-02-07T08:35:01.735Z,101613.78
2018-02-07T08:37:27.905Z,101609.23
2018-02-07T08:39:54.012Z,101612.47
2018-02-07T08:42:20.212Z,101604.77
2018-02-07T08:44:46.446Z,101610.46
2018-02-07T08:47:12.617Z,101604.08
2018-02-07T08:49:38.829Z,101609.39
2018-02-07T08:52:05.067Z,101606.78
2018-02-07T08:54:31.319Z,101616.46
2018-02-07T08:56:57.488Z,101617.55
2018-02-07T08:59:23.748Z,101610.28
2018-02-07T09:01:49.916Z,101618.62
2018-02-07T09:04:16.080Z,101622.12
2018-02-07T09:06:42.286Z,101619.66
2018-02-07T09:09:08.514Z,101621.61
2018-02-07T09:11:34.670Z,101617.58
2018-02-07T09:14:00.878Z,101618.75
2018-02-07T09:16:27.155Z,101626.64
2018-02-07T09:18:53.318Z,101631.72
2018-02-07T09:21:19.485Z,101635.06
2018-02-07T09:23:45.671Z,101629.57
2018-02-07T09:26:11.847Z,101635.61
2018-02-07T09:28:38.058Z,101639.71
2018-02-07T09:31:04.242Z,101637.16
2018-02-07T09:33:30.456Z,101639.92
2018-02-07T09:35:56.654Z,101636.98
2018-02-07T09:38:22.830Z,101645.25
2018-02-07T09:40:49.073Z,101649.84
2018-02-07T09:43:15.288Z,101644.31
2018-02-07T09:45:41.526Z,101641.30
2018-02-07T09:48:07.704Z,101658.45
2018-02-07T09:50:33.956Z,101661.04
2018-02-07T09:53:00.177Z,101655.65
2018-02-07T09:55:26.472Z,101667.20
2018-02-07T09:57:52.723Z,101667.70
2018-02-07T10:00:19.328Z,101676.27
2018-02-07T10:02:45.481Z,101672.25
2018-02-07T10:05:11.719Z,101674.17
2018-02-07T10:07:37.907Z,101669.47
2018-02-07T10:10:04.097Z,101664.53
2018-02-07T10:12:30.300Z,101670.27
2018-02-07T10:14:56.695Z,101675.69
2018-02-07T10:17:22.832Z,101671.54
2018-02-07T10:19:49.062Z,101676.10
2018-02-07T10:22:15.328Z,101682.06
2018-02-07T10:24:41.534Z,101683.19
2018-02-07T10:27:07.892Z,101683.28
2018-02-07T10:29:34.197Z,101682.50
2018-02-07T10:32:00.394Z,101691.94
2018-02-07T10:34:26.545Z,101688.03
2018-02-07T10:36:52.825Z,101693.86
2018-02-07T10:39:18.963Z,101690.30
2018-02-07T10:41:45.183Z,101700.73
2018-02-07T10:44:11.384Z,101702.94
2018-02-07T10:46:37.643Z,101707.00
2018-02-07T10:49:03.909Z,101706.05
2018-02-07T10:51:30.146Z,101712.66
2018-02-07T10:53:56.320Z,101707.69
2018-02-07T10:56:22.554Z,101715.23
2018-02-07T10:58:48.802Z,101709.69
2018-02-07T11:01:14.954Z,101710.17
2018-02-07T11:03:41.206Z,101711.56
2018-02-07T11:06:07.425Z,101716.34
2018-02-07T11:08:34.486Z,101714.53
2018-02-07T11:11:00.741Z,101713.09
2018-02-07T11:13:27.003Z,101709.51
2018-02-07T11:15:53.297Z,101713.25
2018-02-07T11:18:19.653Z,101720.05
2018-02-07T11:20:45.876Z,101714.04
2018-02-07T11:23:12.088Z,101717.22
2018-02-07T11:25:38.346Z,101715.22
2018-02-07T11:28:05.427Z,101717.39
2018-02-07T11:30:31.706Z,101721.56
2018-02-07T11:32:57.928Z,101716.91
2018-02-07T11:35:24.112Z,101726.84
2018-02-07T11:37:50.352Z,101728.53
2018-02-07T11:40:16.521Z,101729.77
2018-02-07T11:42:42.727Z,101731.48
2018-02-07T11:45:09.018Z,101719.75
2018-02-07T11:47:35.200Z,101725.66
2018-02-07T11:50:01.421Z,101718.54
2018-02-07T11:52:27.623Z,101726.20
2018-02-07T11:54:53.797Z,101722.46
2018-02-07T11:57:20.030Z,101723.30
2018-02-07T11:59:46.259Z,101714.80
2018-02-07T12:02:12.558Z,101720.27
2018-02-07T12:04:38.755Z,101721.65
2018-02-07T12:07:04.964Z,101716.37
2018-02-07T12:09:31.144Z,101717.60
2018-02-07T12:11:57.686Z,101715.34
2018-02-07T12:14:23.847Z,101717.30
2018-02-07T12:16:50.068Z,101719.30
2018-02-07T12:19:16.267Z,101722.58
2018-02-07T12:21:42.439Z,101718.93
2018-02-07T12:24:08.671Z,101715.58
2018-02-07T12:26:34.901Z,101712.71
2018-02-07T12:29:01.169Z,101721.31
2018-02-07T12:31:27.343Z,101708.94
2018-02-07T12:33:53.540Z,101717.63
2018-02-07T12:36:19.813Z,101717.47
2018-02-07T12:38:46.014Z,101720.55
2018-02-07T12:41:12.210Z,101721.70
2018-02-07T12:43:38.359Z,101730.48
2018-02-07T12:46:04.610Z,101732.27
2018-02-07T12:48:30.824Z,101733.44
2018-02-07T12:50:57.000Z,101723.34
2018-02-07T12:53:23.213Z,101723.58
2018-02-07T12:55:49.457Z,101723.88
2018-02-07T12:58:15.635Z,101728.00
2018-02-07T13:00:41.894Z,101729.38
2018-02-07T13:03:08.023Z,101723.03
2018-02-07T13:05:34.248Z,101718.20
2018-02-07T13:08:00.496Z,101720.61
2018-02-07T13:10:26.705Z,101730.91
2018-02-07T13:12:52.994Z,101720.52
2018-02-07T13:15:19.163Z,101729.69
2018-02-07T13:17:45.380Z,101734.86
2018-02-07T13:20:11.600Z,101733.98
2018-02-07T13:22:37.782Z,101736.61
2018-02-07T13:25:03.993Z,101738.59
2018-02-07T13:27:30.246Z,101731.42
2018-02-07T13:29:56.606Z,101731.52
2018-02-07T13:32:22.826Z,101730.55
2018-02-07T13:34:49.024Z,101721.59
2018-02-07T13:37:15.251Z,101720.25
2018-02-07T13:39:41.437Z,101727.53
2018-02-07T13:42:07.645Z,101726.06
2018-02-07T13:44:33.864Z,101727.86
2018-02-07T13:47:00.118Z,101726.38
2018-02-07T13:49:26.450Z,101729.42
2018-02-07T13:51:52.660Z,101725.36
2018-02-07T13:54:18.931Z,101723.55
2018-02-07T13:56:45.126Z,101728.06
2018-02-07T13:59:11.332Z,101727.48
2018-02-07T14:01:37.439Z,101724.69
2018-02-07T14:04:03.616Z,101730.05
2018-02-07T14:06:29.774Z,101728.84
2018-02-07T14:08:55.897Z,101728.15
2018-02-07T14:11:22.099Z,101726.38
2018-02-07T14:13:48.283Z,101722.00
2018-02-07T14:16:14.528Z,101717.73
2018-02-07T14:18:40.791Z,101710.41
2018-02-07T14:21:06.968Z,101720.63
2018-02-07T14:23:33.191Z,101713.90
2018-02-07T14:25:59.476Z,101713.73
2018-02-07T14:28:25.742Z,101704.77
2018-02-07T14:30:51.968Z,101700.31
2018-02-07T14:33:18.164Z,101712.17
2018-02-07T14:35:44.359Z,101712.70
2018-02-07T14:38:10.590Z,101708.23
2018-02-07T14:40:36.808Z,101700.98
2018-02-07T14:43:03.000Z,101707.35
2018-02-07T14:45:29.183Z,101710.62
2018-02-07T14:47:55.397Z,101704.91
2018-02-07T14:50:21.573Z,101702.17
2018-02-07T14:52:47.751Z,101704.50
2018-02-07T14:55:13.950Z,101702.02
2018-02-07T14:57:40.216Z,101696.44
2018-02-07T15:00:06.456Z,101705.73
2018-02-07T15:02:32.676Z,101707.66
2018-02-07T15:04:58.878Z,101714.85
2018-02-07T15:07:25.096Z,101715.30
2018-02-07T15:09:51.291Z,101717.91
2018-02-07T15:12:17.491Z,101716.63
2018-02-07T15:14:43.707Z,101723.27
2018-02-07T15:17:09.983Z,101712.63
2018-02-07T15:19:36.150Z,101722.38
2018-02-07T15:22:02.304Z,101719.95
2018-02-07T15:24:28.509Z,101713.92
2018-02-07T15:26:54.706Z,101719.14
2018-02-07T15:29:20.982Z,101712.69
2018-02-07T15:31:47.133Z,101712.63
2018-02-07T15:34:13.399Z,101710.45
2018-02-07T15:36:39.582Z,101709.39
2018-02-07T15:39:05.769Z,101705.50
2018-02-07T15:41:31.965Z,101705.83
2018-02-07T15:43:59.199Z,101703.72
2018-02-07T15:46:25.433Z,101708.52
2018-02-07T15:48:51.622Z,101708.42
2018-02-07T15:51:17.872Z,101701.94
2018-02-07T15:53:44.034Z,101706.22
2018-02-07T15:56:10.228Z,101709.55
2018-02-07T15:58:36.501Z,101710.30
2018-02-07T16:01:02.812Z,101714.91
2018-02-07T16:03:29.052Z,101713.95
2018-02-07T16:05:55.320Z,101718.30
2018-02-07T16:08:21.541Z,101719.38
2018-02-07T16:10:47.751Z,101718.48
2018-02-07T16:13:13.934Z,101725.33
2018-02-07T16:15:40.188Z,101729.42
2018-02-07T16:18:06.480Z,101727.42
2018-02-07T16:20:32.659Z,101729.86
2018-02-07T16:22:58.853Z,101731.85
2018-02-07T16:25:25.041Z,101731.63
2018-02-07T16:27:51.313Z,101737.02
2018-02-07T16:30:17.607Z,101741.72
2018-02-07T16:32:43.864Z,101746.27
2018-02-07T16:35:10.098Z,101751.64
2018-02-07T16:37:36.358Z,101744.97
2018-02-07T16:40:02.515Z,101749.45
2018-02-07T16:42:28.757Z,101750.55
2018-02-07T16:44:54.934Z,101753.27
2018-02-07T16:47:21.136Z,101751.73
2018-02-07T16:49:47.402Z,101750.63
2018-02-07T16:52:13.696Z,101748.36
2018-02-07T16:54:39.914Z,101748.62
2018-02-07T16:57:06.131Z,101756.68
2018-02-07T16:59:32.386Z,101765.13
2018-02-07T17:01:58.784Z,101771.29
2018-02-07T17:04:25.193Z,101775.39
2018-02-07T17:06:51.495Z,101767.94
2018-02-07T17:09:17.700Z,101779.05
2018-02-07T17:11:43.969Z,101775.02
2018-02-07T17:14:10.114Z,101776.53
2018-02-07T17:16:36.304Z,101782.00
2018-02-07T17:19:02.509Z,101786.97
2018-02-07T17:21:28.727Z,101782.42
2018-02-07T17:23:54.966Z,101790.80
2018-02-07T17:26:21.437Z,101793.98
2018-02-07T17:28:47.670Z,101798.77
2018-02-07T17:31:13.886Z,101798.34
2018-02-07T17:33:40.077Z,101805.30
2018-02-07T17:36:06.307Z,101803.16
2018-02-07T17:38:32.700Z,101804.06
2018-02-07T17:40:58.998Z,101801.34
2018-02-07T17:43:25.210Z,101803.53
2018-02-07T17:45:51.824Z,101803.13
2018-02-07T17:48:18.088Z,101804.42
2018-02-07T17:50:44.263Z,101802.87
2018-02-07T17:53:10.664Z,101796.67
2018-02-07T17:55:37.007Z,101798.05
2018-02-07T17:58:03.249Z,101804.71
2018-02-07T18:00:29.470Z,101800.64
2018-02-07T18:02:55.668Z,101793.95
2018-02-07T18:05:21.961Z,101799.73
2018-02-07T18:07:48.188Z,101802.81
2018-02-07T18:10:14.443Z,101808.09
2018-02-07T18:12:40.720Z,101813.37
2018-02-07T18:15:06.921Z,101809.67
2018-02-07T18:17:33.070Z,101815.06
2018-02-07T18:19:59.225Z,101814.30
2018-02-07T18:22:25.471Z,101814.52
2018-02-07T18:24:51.622Z,101818.78
2018-02-07T18:27:17.857Z,101824.28
2018-02-07T18:29:44.080Z,101814.13
2018-02-07T18:32:10.301Z,101819.63
2018-02-07T18:34:36.538Z,101829.73
2018-02-07T18:37:02.843Z,101824.41
2018-02-07T18:39:29.077Z,101831.23
2018-02-07T18:41:55.325Z,101834.98
2018-02-07T18:44:21.591Z,101836.28
2018-02-07T18:46:47.832Z,101840.88
2018-02-07T18:49:14.088Z,101841.62
2018-02-07T18:51:40.438Z,101842.54
2018-02-07T18:54:06.686Z,101844.63
2018-02-07T18:56:32.931Z,101853.96
2018-02-07T18:58:59.201Z,101847.38
2018-02-07T19:01:25.434Z,101846.97
2018-02-07T19:03:51.648Z,101845.59
2018-02-07T19:06:17.856Z,101851.09
2018-02-07T19:08:44.116Z,101847.10
2018-02-07T19:11:10.336Z,101847.39
2018-02-07T19:13:36.584Z,101850.77
2018-02-07T19:16:02.854Z,101846.81
2018-02-07T19:18:29.106Z,101853.11
2018-02-07T19:20:55.305Z,101854.28
2018-02-07T19:23:21.530Z,101854.66
2018-02-07T19:25:47.669Z,101855.73
2018-02-07T19:28:13.965Z,101859.23
2018-02-07T19:30:40.185Z,101854.95
2018-02-07T19:33:06.525Z,101856.48
2018-02-07T19:35:32.739Z,101854.61
2018-02-07T19:37:59.137Z,101854.49
2018-02-07T19:40:25.355Z,101863.45
2018-02-07T19:42:51.609Z,101859.41
2018-02-07T19:45:17.883Z,101859.91
2018-02-07T19:47:44.131Z,101864.78
2018-02-07T19:50:10.314Z,101868.19
2018-02-07T19:52:36.592Z,101859.58
2018-02-07T19:55:02.811Z,101862.20
2018-02-07T19:57:29.028Z,101860.58
2018-02-07T19:59:55.288Z,101860.98
2018-02-07T20:02:21.508Z,101873.48
2018-02-07T20:04:47.668Z,101862.66
2018-02-07T20:07:13.941Z,101864.08
2018-02-07T20:09:40.213Z,101859.48
2018-02-07T20:12:06.453Z,101868.77
2018-02-07T20:14:32.592Z,101858.64
2018-02-07T20:16:58.819Z,101863.14
2018-02-07T20:19:24.970Z,101862.44
2018-02-07T20:21:51.182Z,101867.88
2018-02-07T20:24:17.362Z,101869.75
2018-02-07T20:26:43.485Z,101865.09
2018-02-07T20:29:09.649Z,101871.00
2018-02-07T20:31:35.834Z,101870.48
2018-02-07T20:34:02.006Z,101880.14
2018-02-07T20:36:28.209Z,101877.80
2018-02-07T20:38:54.382Z,101877.17
2018-02-07T20:41:20.512Z,101878.58
2018-02-07T20:43:46.699Z,101881.66
2018-02-07T20:46:12.916Z,101877.91
2018-02-07T20:48:39.135Z,101879.52
2018-02-07T20:51:05.315Z,101886.17
2018-02-07T20:53:31.511Z,101881.13
2018-02-07T20:55:57.691Z,101879.91
2018-02-07T20:58:23.846Z,101882.08
2018-02-07T21:00:50.089Z,101888.63
2018-02-07T21:03:16.293Z,101877.41
2018-02-07T21:05:42.443Z,101881.78
2018-02-07T21:08:08.680Z,101893.11
2018-02-07T21:10:34.794Z,101894.61
2018-02-07T21:13:01.047Z,101890.81
2018-02-07T21:15:27.232Z,101889.89
2018-02-07T21:17:53.389Z,101894.07
2018-02-07T21:20:19.506Z,101896.16
2018-02-07T21:22:45.698Z,101897.78
2018-02-07T21:25:11.806Z,101896.66
2018-02-07T21:27:37.991Z,101898.60
2018-02-07T21:30:04.119Z,101891.64
2018-02-07T21:32:30.300Z,101895.36
2018-02-07T21:34:56.447Z,101891.03
2018-02-07T21:37:22.648Z,101888.45
2018-02-07T21:39:48.786Z,101888.37
2018-02-07T21:42:14.923Z,101881.45
2018-02-07T21:44:41.140Z,101879.58
2018-02-07T21:47:07.233Z,101888.25
2018-02-07T21:49:33.356Z,101880.65
2018-02-07T21:51:59.497Z,101882.17
2018-02-07T21:54:25.671Z,101887.63
2018-02-07T21:56:51.830Z,101887.44
2018-02-07T21:59:17.991Z,101883.76
2018-02-07T22:01:44.158Z,101883.46
2018-02-07T22:04:10.332Z,101883.23
2018-02-07T22:06:36.500Z,101876.66
2018-02-07T22:09:02.715Z,101877.61
2018-02-07T22:11:28.903Z,101869.93
2018-02-07T22:13:55.382Z,101867.45
2018-02-07T22:16:21.527Z,101863.35
2018-02-07T22:18:47.757Z,101866.05
2018-02-07T22:21:13.874Z,101868.30
2018-02-07T22:23:40.031Z,101862.33
2018-02-07T22:26:06.181Z,101885.80
2018-02-07T22:28:32.335Z,101869.55
2018-02-07T22:30:58.527Z,101863.85
2018-02-07T22:33:24.699Z,101866.81
2018-02-07T22:35:50.879Z,101870.73
2018-02-07T22:38:17.030Z,101879.22
2018-02-07T22:40:43.208Z,101877.88
2018-02-07T22:43:09.433Z,101882.98
2018-02-07T22:45:35.626Z,101874.37
2018-02-07T22:48:01.770Z,101877.45
2018-02-07T22:50:27.961Z,101877.48
2018-02-07T22:52:54.122Z,101873.68
2018-02-07T22:55:20.296Z,101875.98
2018-02-07T22:57:46.473Z,101874.00
2018-02-07T23:00:12.630Z,101874.37
2018-02-07T23:02:38.750Z,101870.27
2018-02-07T23:05:04.920Z,101865.48
2018-02-07T23:07:31.062Z,101879.73
2018-02-07T23:09:57.252Z,101880.34
2018-02-07T23:12:23.436Z,101889.80
2018-02-07T23:14:49.606Z,101895.70
2018-02-07T23:17:15.808Z,101904.94
2018-02-07T23:19:41.967Z,101907.19
2018-02-07T23:22:08.053Z,101908.59
2018-02-07T23:24:34.231Z,101913.88
2018-02-07T23:27:00.365Z,101900.95
2018-02-07T23:29:26.529Z,101906.51
2018-02-07T23:31:52.638Z,101907.04
2018-02-07T23:34:18.806Z,101908.80
2018-02-07T23:36:44.996Z,101911.08
2018-02-07T23:39:11.113Z,101907.89
2018-02-07T23:41:37.245Z,101902.03
2018-02-07T23:44:03.408Z,101910.48
2018-02-07T23:46:29.570Z,101907.97
2018-02-07T23:48:55.726Z,101905.84
2018-02-07T23:51:21.879Z,101902.88
2018-02-07T23:53:48.017Z,101901.13
2018-02-07T23:56:14.151Z,101910.18
2018-02-07T23:58:40.314Z,101902.46
